createdAt,value
2023-04-08T00:02:48.048Z,101491.97
2023-04-08T00:05:52.398Z,101496.38
2023-04-08T00:08:55.537Z,101491.22
2023-04-08T00:11:58.590Z,101497.06
2023-04-08T00:15:01.630Z,101498.63
2023-04-08T00:18:04.961Z,101493.47
2023-04-08T00:21:09.532Z,101499.31
2023-04-08T00:24:12.971Z,101489.81
2023-04-08T00:27:16.113Z,101502.06
2023-04-08T00:30:19.505Z,101495.03
2023-04-08T00:33:24.844Z,101503.63
2023-04-08T00:36:29.744Z,101498.75
2023-04-08T00:39:32.879Z,101502.16
2023-04-08T00:42:36.747Z,101495.31
2023-04-08T00:45:39.951Z,101500.56
2023-04-08T00:48:43.036Z,101490.38
2023-04-08T00:51:47.787Z,101491.13
2023-04-08T00:54:50.866Z,101496.28
2023-04-08T00:57:55.234Z,101491.13
2023-04-08T01:01:07.024Z,101491.06
2023-04-08T01:04:22.790Z,101501.25
2023-04-08T01:07:31.262Z,101503.75
2023-04-08T01:10:38.406Z,101504.75
2023-04-08T01:13:44.086Z,101496.66
2023-04-08T01:16:47.544Z,101501.94
2023-04-08T01:19:51.509Z,101512.03
2023-04-08T01:23:08.758Z,101514.63
2023-04-08T01:26:22.451Z,101521.53
2023-04-08T01:29:27.309Z,101518.91
2023-04-08T01:32:31.977Z,101503.75
2023-04-08T01:35:35.367Z,101505.56
2023-04-08T01:38:39.662Z,101515.97
2023-04-08T01:41:46.384Z,101509.00
2023-04-08T01:44:50.466Z,101510.81
2023-04-08T01:47:54.516Z,101521.06
2023-04-08T01:50:58.412Z,101517.66
2023-04-08T01:54:01.530Z,101514.16
2023-04-08T01:57:08.825Z,101513.34
2023-04-08T02:00:14.727Z,101511.66
2023-04-08T02:03:26.802Z,101518.34
2023-04-08T02:06:31.907Z,101521.09
2023-04-08T02:09:35.355Z,101525.25
2023-04-08T02:12:40.843Z,101529.56
2023-04-08T02:15:54.538Z,101538.09
2023-04-08T02:19:04.733Z,101534.63
2023-04-08T02:22:21.189Z,101539.06
2023-04-08T02:25:26.799Z,101539.06
2023-04-08T02:28:33.374Z,101531.25
2023-04-08T02:31:36.685Z,101539.16
2023-04-08T02:34:41.724Z,101540.00
2023-04-08T02:37:47.957Z,101534.84
2023-04-08T02:40:52.337Z,101540.69
2023-04-08T02:43:57.201Z,101545.97
2023-04-08T02:47:00.377Z,101552.88
2023-04-08T02:50:03.476Z,101556.34
2023-04-08T02:53:06.600Z,101556.19
2023-04-08T02:56:12.885Z,101564.06
2023-04-08T02:59:17.202Z,101553.72
2023-04-08T03:02:20.357Z,101560.66
2023-04-08T03:05:23.722Z,101563.94
2023-04-08T03:08:26.864Z,101555.50
2023-04-08T03:11:30.603Z,101560.66
2023-04-08T03:14:35.081Z,101562.38
2023-04-08T03:17:38.215Z,101566.69
2023-04-08T03:20:41.261Z,101570.78
2023-04-08T03:23:44.309Z,101575.94
2023-04-08T03:26:47.417Z,101576.06
2023-04-08T03:29:53.071Z,101583.81
2023-04-08T03:32:56.829Z,101585.63
2023-04-08T03:36:00.512Z,101580.47
2023-04-08T03:39:03.854Z,101577.88
2023-04-08T03:42:06.891Z,101582.03
2023-04-08T03:45:12.031Z,101589.78
2023-04-08T03:48:15.111Z,101583.88
2023-04-08T03:51:18.337Z,101581.13
2023-04-08T03:54:24.027Z,101584.59
2023-04-08T03:57:27.118Z,101601.69
2023-04-08T04:00:31.771Z,101603.44
2023-04-08T04:03:35.173Z,101601.75
2023-04-08T04:06:38.567Z,101603.31
2023-04-08T04:09:41.586Z,101606.66
2023-04-08T04:12:44.785Z,101606.56
2023-04-08T04:15:51.943Z,101604.00
2023-04-08T04:18:55.081Z,101610.91
2023-04-08T04:21:58.148Z,101610.19
2023-04-08T04:25:01.142Z,101619.63
2023-04-08T04:28:04.186Z,101617.72
2023-04-08T04:31:08.593Z,101621.91
2023-04-08T04:34:11.720Z,101627.00
2023-04-08T04:37:14.708Z,101625.09
2023-04-08T04:40:17.753Z,101629.22
2023-04-08T04:43:20.844Z,101631.94
2023-04-08T04:46:25.235Z,101644.13
2023-04-08T04:49:28.194Z,101639.78
2023-04-08T04:52:31.247Z,101646.00
2023-04-08T04:55:34.300Z,101653.06
2023-04-08T04:58:37.758Z,101647.84
2023-04-08T05:01:42.140Z,101652.78
2023-04-08T05:04:45.175Z,101657.69
2023-04-08T05:07:48.504Z,101657.81
2023-04-08T05:10:51.508Z,101656.44
2023-04-08T05:13:54.493Z,101660.66
2023-04-08T05:16:58.916Z,101659.69
2023-04-08T05:20:01.872Z,101668.22
2023-04-08T05:23:04.838Z,101659.53
2023-04-08T05:26:09.449Z,101665.56
2023-04-08T05:29:12.797Z,101665.50
2023-04-08T05:32:17.314Z,101663.06
2023-04-08T05:35:20.531Z,101670.81
2023-04-08T05:38:23.612Z,101692.31
2023-04-08T05:41:26.744Z,101688.81
2023-04-08T05:44:30.237Z,101699.03
2023-04-08T05:47:34.765Z,101703.25
2023-04-08T05:50:37.821Z,101701.34
2023-04-08T05:53:40.799Z,101700.34
2023-04-08T05:56:46.352Z,101701.19
2023-04-08T05:59:49.356Z,101701.03
2023-04-08T06:02:54.353Z,101699.16
2023-04-08T06:05:57.457Z,101710.16
2023-04-08T06:09:00.438Z,101704.16
2023-04-08T06:12:03.382Z,101711.69
2023-04-08T06:15:08.156Z,101712.31
2023-04-08T06:18:12.420Z,101714.00
2023-04-08T06:21:15.429Z,101721.75
2023-04-08T06:24:18.356Z,101724.28
2023-04-08T06:27:21.447Z,101724.78
2023-04-08T06:30:24.522Z,101725.47
2023-04-08T06:33:28.844Z,101723.72
2023-04-08T06:36:31.856Z,101730.72
2023-04-08T06:39:35.299Z,101740.84
2023-04-08T06:42:40.829Z,101742.59
2023-04-08T06:46:01.240Z,101748.66
2023-04-08T06:49:06.937Z,101750.78
2023-04-08T06:52:11.060Z,101754.97
2023-04-08T06:55:15.146Z,101755.53
2023-04-08T06:58:18.442Z,101765.19
2023-04-08T07:01:21.665Z,101763.38
2023-04-08T07:04:26.703Z,101773.41
2023-04-08T07:07:29.659Z,101772.56
2023-04-08T07:10:32.646Z,101775.00
2023-04-08T07:13:35.747Z,101770.19
2023-04-08T07:16:38.773Z,101774.44
2023-04-08T07:19:44.047Z,101777.22
2023-04-08T07:22:47.104Z,101787.22
2023-04-08T07:25:50.053Z,101790.22
2023-04-08T07:28:53.363Z,101792.84
2023-04-08T07:31:56.481Z,101796.34
2023-04-08T07:35:23.870Z,101802.97
2023-04-08T07:38:27.815Z,101805.63
2023-04-08T07:41:30.930Z,101804.69
2023-04-08T07:44:33.897Z,101810.97
2023-04-08T07:47:37.543Z,101811.44
2023-04-08T07:51:08.303Z,101809.53
2023-04-08T07:54:04.837Z,101821.28
2023-04-08T07:57:08.124Z,101807.94
2023-04-08T08:00:12.318Z,101820.13
2023-04-08T08:03:18.396Z,101824.81
2023-04-08T08:06:23.366Z,101826.16
2023-04-08T08:09:26.440Z,101824.09
2023-04-08T08:12:29.405Z,101826.63
2023-04-08T08:15:32.762Z,101827.59
2023-04-08T08:18:36.373Z,101838.59
2023-04-08T08:21:40.749Z,101840.44
2023-04-08T08:24:44.060Z,101844.59
2023-04-08T08:27:47.658Z,101847.84
2023-04-08T08:30:50.852Z,101846.50
2023-04-08T08:33:53.944Z,101855.78
2023-04-08T08:36:58.840Z,101854.44
2023-04-08T08:40:01.802Z,101861.97
2023-04-08T08:43:04.963Z,101863.19
2023-04-08T08:46:12.374Z,101866.31
2023-04-08T08:49:15.568Z,101876.91
2023-04-08T08:52:20.036Z,101878.84
2023-04-08T08:58:30.080Z,101883.19
2023-04-08T09:01:38.593Z,101894.94
2023-04-08T09:04:57.655Z,101895.00
2023-04-08T09:08:02.086Z,101904.63
2023-04-08T09:11:16.905Z,101904.94
2023-04-08T09:14:22.169Z,101902.91
2023-04-08T09:17:36.316Z,101921.34
2023-04-08T09:20:54.075Z,101920.81
2023-04-08T09:23:58.408Z,101924.50
2023-04-08T09:27:01.843Z,101932.94
2023-04-08T09:30:15.131Z,101932.50
2023-04-08T09:33:18.581Z,101936.91
2023-04-08T09:36:21.731Z,101943.22
2023-04-08T09:39:26.320Z,101946.22
2023-04-08T09:42:30.213Z,101941.88
2023-04-08T09:45:35.499Z,101945.00
2023-04-08T09:48:43.354Z,101944.00
2023-04-08T09:51:51.205Z,101941.88
2023-04-08T09:55:00.946Z,101941.31
2023-04-08T09:58:08.916Z,101943.00
2023-04-08T10:01:15.962Z,101945.25
2023-04-08T10:04:22.848Z,101939.06
2023-04-08T10:07:26.220Z,101951.66
2023-04-08T10:10:30.933Z,101952.66
2023-04-08T10:13:36.353Z,101950.44
2023-04-08T10:16:39.324Z,101953.91
2023-04-08T10:19:43.110Z,101955.56
2023-04-08T10:22:50.087Z,101947.56
2023-04-08T10:25:54.406Z,101955.00
2023-04-08T10:28:57.421Z,101957.53
2023-04-08T10:32:01.369Z,101963.19
2023-04-08T10:35:04.565Z,101953.00
2023-04-08T10:38:08.544Z,101954.69
2023-04-08T10:41:14.009Z,101956.38
2023-04-08T10:44:17.893Z,101963.75
2023-04-08T10:47:27.302Z,101962.44
2023-04-08T10:50:30.698Z,101956.38
2023-04-08T10:53:36.005Z,101953.00
2023-04-08T10:56:47.931Z,101959.91
2023-04-08T10:59:50.974Z,101952.97
2023-04-08T11:02:54.605Z,101948.00
2023-04-08T11:05:59.509Z,101957.16
2023-04-08T11:09:04.764Z,101959.44
2023-04-08T11:12:09.779Z,101965.16
2023-04-08T11:15:14.916Z,101970.94
2023-04-08T11:18:19.067Z,101961.84
2023-04-08T11:21:24.653Z,101962.69
2023-04-08T11:24:28.292Z,101969.69
2023-04-08T11:27:33.572Z,101963.09
2023-04-08T11:30:40.524Z,101965.72
2023-04-08T11:33:48.779Z,101964.50
2023-04-08T11:36:54.201Z,101970.91
2023-04-08T11:39:57.583Z,101968.44
2023-04-08T11:43:11.267Z,101970.00
2023-04-08T11:46:15.118Z,101968.13
2023-04-08T11:49:19.472Z,101963.69
2023-04-08T11:52:22.747Z,101966.75
2023-04-08T11:55:27.866Z,101954.00
2023-04-08T11:58:32.289Z,101964.44
2023-04-08T12:01:35.383Z,101958.44
2023-04-08T12:04:39.366Z,101949.41
2023-04-08T12:07:42.894Z,101948.66
2023-04-08T12:10:46.221Z,101946.78
2023-04-08T12:13:52.615Z,101950.44
2023-04-08T12:16:55.965Z,101956.59
2023-04-08T12:19:59.017Z,101950.94
2023-04-08T12:23:02.024Z,101956.41
2023-04-08T12:26:06.033Z,101962.06
2023-04-08T12:29:11.763Z,101949.59
2023-04-08T12:32:15.004Z,101948.78
2023-04-08T12:35:18.043Z,101952.53
2023-04-08T12:38:21.430Z,101950.44
2023-04-08T12:41:24.419Z,101956.66
2023-04-08T12:44:28.777Z,101953.63
2023-04-08T12:47:33.496Z,101955.31
2023-04-08T12:50:37.905Z,101955.09
2023-04-08T12:53:40.899Z,101948.13
2023-04-08T12:56:44.260Z,101946.91
2023-04-08T12:59:48.848Z,101946.94
2023-04-08T13:02:52.200Z,101946.22
2023-04-08T13:05:55.290Z,101941.63
2023-04-08T13:08:58.327Z,101940.53
2023-04-08T13:12:01.356Z,101945.63
2023-04-08T13:15:07.497Z,101933.13
2023-04-08T13:18:10.936Z,101924.94
2023-04-08T13:21:13.945Z,101935.28
2023-04-08T13:24:17.201Z,101948.34
2023-04-08T13:27:20.581Z,101942.22
2023-04-08T13:30:25.055Z,101941.72
2023-04-08T13:33:28.012Z,101949.00
2023-04-08T13:36:31.565Z,101940.56
2023-04-08T13:39:34.845Z,101942.63
2023-04-08T13:42:37.876Z,101930.88
2023-04-08T13:45:42.251Z,101922.47
2023-04-08T13:48:46.023Z,101922.06
2023-04-08T13:51:48.998Z,101933.56
2023-04-08T13:54:52.027Z,101929.84
2023-04-08T13:57:55.096Z,101927.28
2023-04-08T14:00:59.454Z,101921.22
2023-04-08T14:04:02.747Z,101921.09
2023-04-08T14:07:05.940Z,101922.28
2023-04-08T14:10:10.865Z,101925.72
2023-04-08T14:13:13.944Z,101921.03
2023-04-08T14:16:18.332Z,101922.28
2023-04-08T14:19:21.416Z,101912.22
2023-04-08T14:22:24.387Z,101922.78
2023-04-08T14:25:27.591Z,101914.34
2023-04-08T14:28:30.582Z,101914.28
2023-04-08T14:31:36.537Z,101922.16
2023-04-08T14:34:42.082Z,101919.47
2023-04-08T14:37:45.385Z,101911.03
2023-04-08T14:40:48.353Z,101916.28
2023-04-08T14:43:51.357Z,101925.00
2023-04-08T14:46:55.980Z,101929.34
2023-04-08T14:50:00.340Z,101926.19
2023-04-08T14:53:03.460Z,101921.00
2023-04-08T14:56:08.882Z,101913.94
2023-04-08T14:59:11.867Z,101910.66
2023-04-08T15:02:16.345Z,101918.47
2023-04-08T15:05:19.634Z,101915.56
2023-04-08T15:08:22.799Z,101916.81
2023-04-08T15:11:26.068Z,101913.97
2023-04-08T15:14:29.057Z,101907.66
2023-04-08T15:17:33.901Z,101914.38
2023-04-08T15:20:36.958Z,101912.38
2023-04-08T15:23:41.887Z,101918.09
2023-04-08T15:26:44.909Z,101915.59
2023-04-08T15:29:48.506Z,101920.88
2023-04-08T15:32:54.098Z,101923.88
2023-04-08T15:36:03.112Z,101932.66
2023-04-08T15:39:06.546Z,101924.56
2023-04-08T15:42:09.550Z,101924.94
2023-04-08T15:45:13.215Z,101922.19
2023-04-08T15:48:18.803Z,101924.06
2023-04-08T15:51:21.993Z,101931.16
2023-04-08T15:54:25.077Z,101930.75
2023-04-08T15:57:28.498Z,101921.56
2023-04-08T16:00:31.718Z,101931.91
2023-04-08T16:03:36.298Z,101931.09
2023-04-08T16:06:39.448Z,101925.09
2023-04-08T16:09:42.476Z,101922.94
2023-04-08T16:12:46.218Z,101922.28
2023-04-08T16:15:49.235Z,101928.22
2023-04-08T16:18:53.695Z,101930.19
2023-04-08T16:21:57.290Z,101936.69
2023-04-08T16:25:00.308Z,101939.09
2023-04-08T16:28:03.385Z,101938.31
2023-04-08T16:31:06.856Z,101943.16
2023-04-08T16:34:11.279Z,101936.28
2023-04-08T16:37:14.943Z,101937.41
2023-04-08T16:40:18.887Z,101948.09
2023-04-08T16:43:22.353Z,101960.13
2023-04-08T16:46:25.326Z,101963.09
2023-04-08T16:49:29.630Z,101964.69
2023-04-08T16:52:32.636Z,101972.19
2023-04-08T16:55:39.230Z,101976.59
2023-04-08T16:58:42.540Z,101983.66
2023-04-08T17:01:45.683Z,101994.41
2023-04-08T17:04:52.012Z,102000.19
2023-04-08T17:07:57.646Z,101996.97
2023-04-08T17:11:07.780Z,102017.06
2023-04-08T17:14:11.125Z,102017.63
2023-04-08T17:17:14.493Z,102022.69
2023-04-08T17:20:19.011Z,102030.72
2023-04-08T17:23:22.295Z,102038.63
2023-04-08T17:26:26.326Z,102042.59
2023-04-08T17:29:29.306Z,102045.44
2023-04-08T17:32:32.310Z,102055.50
2023-04-08T17:35:37.086Z,102063.78
2023-04-08T17:38:41.183Z,102068.78
2023-04-08T17:41:45.809Z,102073.34
2023-04-08T17:44:49.319Z,102079.84
2023-04-08T17:47:52.692Z,102081.09
2023-04-08T17:51:02.101Z,102085.94
2023-04-08T17:54:05.699Z,102091.59
2023-04-08T17:57:09.265Z,102102.44
2023-04-08T18:00:13.106Z,102107.81
2023-04-08T18:03:16.702Z,102113.53
2023-04-08T18:06:21.171Z,102119.38
2023-04-08T18:09:24.240Z,102120.31
2023-04-08T18:12:29.351Z,102123.97
2023-04-08T18:15:35.495Z,102128.81
2023-04-08T18:18:38.527Z,102137.44
2023-04-08T18:21:43.492Z,102137.44
2023-04-08T18:24:46.448Z,102145.06
2023-04-08T18:27:50.377Z,102148.53
2023-04-08T18:30:53.493Z,102156.34
2023-04-08T18:33:57.896Z,102167.56
2023-04-08T18:37:02.181Z,102159.56
2023-04-08T18:40:07.354Z,102165.47
2023-04-08T18:43:11.912Z,102170.56
2023-04-08T18:46:14.945Z,102177.53
2023-04-08T18:49:18.079Z,102173.84
2023-04-08T18:52:22.418Z,102180.72
2023-04-08T18:55:25.408Z,102184.09
2023-04-08T18:58:28.909Z,102186.97
2023-04-08T19:01:33.179Z,102192.13
2023-04-08T19:04:36.220Z,102195.53
2023-04-08T19:07:40.527Z,102198.31
2023-04-08T19:10:44.491Z,102197.38
2023-04-08T19:13:47.442Z,102195.72
2023-04-08T19:16:50.805Z,102199.22
2023-04-08T19:19:54.021Z,102198.31
2023-04-08T19:22:58.321Z,102201.81
2023-04-08T19:26:06.047Z,102199.69
2023-04-08T19:29:09.533Z,102198.69
2023-04-08T19:32:12.612Z,102206.47
2023-04-08T19:35:15.636Z,102200.09
2023-04-08T19:38:20.178Z,102203.38
2023-04-08T19:41:23.472Z,102203.13
2023-04-08T19:44:27.045Z,102198.69
2023-04-08T19:47:30.348Z,102203.88
2023-04-08T19:50:33.321Z,102194.22
2023-04-08T19:53:37.663Z,102204.44
2023-04-08T19:56:44.060Z,102206.94
2023-04-08T19:59:47.917Z,102204.53
2023-04-08T20:02:51.294Z,102203.00
2023-04-08T20:05:54.512Z,102218.09
2023-04-08T20:09:05.689Z,102214.78
2023-04-08T20:12:09.129Z,102211.97
2023-04-08T20:15:23.772Z,102216.31
2023-04-08T20:18:28.553Z,102211.91
2023-04-08T20:21:32.638Z,102204.78
2023-04-08T20:24:37.922Z,102217.38
2023-04-08T20:27:41.236Z,102220.53
2023-04-08T20:30:44.450Z,102209.38
2023-04-08T20:33:47.523Z,102208.75
2023-04-08T20:36:50.977Z,102211.38
2023-04-08T20:39:55.421Z,102212.97
2023-04-08T20:42:58.472Z,102211.53
2023-04-08T20:46:01.750Z,102218.81
2023-04-08T20:49:05.334Z,102214.19
2023-04-08T20:52:08.554Z,102210.59
2023-04-08T20:55:13.188Z,102210.50
2023-04-08T20:58:16.248Z,102216.47
2023-04-08T21:01:19.217Z,102216.47
2023-04-08T21:04:24.360Z,102213.19
2023-04-08T21:07:27.314Z,102226.94
2023-04-08T21:10:31.659Z,102230.75
2023-04-08T21:13:34.984Z,102230.63
2023-04-08T21:16:38.045Z,102220.38
2023-04-08T21:19:41.848Z,102224.72
2023-04-08T21:22:44.903Z,102230.84
2023-04-08T21:25:49.378Z,102230.91
2023-04-08T21:28:52.562Z,102230.06
2023-04-08T21:31:57.228Z,102227.75
2023-04-08T21:35:00.861Z,102233.91
2023-04-08T21:38:03.957Z,102233.22
2023-04-08T21:41:08.296Z,102226.44
2023-04-08T21:44:12.662Z,102227.56
2023-04-08T21:47:15.874Z,102231.56
2023-04-08T21:50:19.104Z,102220.00
2023-04-08T21:53:23.733Z,102231.34
2023-04-08T21:56:28.035Z,102225.56
2023-04-08T21:59:31.352Z,102230.94
2023-04-08T22:02:40.770Z,102228.44
2023-04-08T22:05:43.915Z,102226.78
2023-04-08T22:08:46.916Z,102223.72
2023-04-08T22:11:51.204Z,102229.88
2023-04-08T22:14:54.326Z,102222.13
2023-04-08T22:17:57.402Z,102224.91
2023-04-08T22:21:00.416Z,102218.16
2023-04-08T22:24:03.647Z,102206.06
2023-04-08T22:27:08.107Z,102209.94
2023-04-08T22:30:12.247Z,102210.13
2023-04-08T22:33:15.363Z,102209.53
2023-04-08T22:36:18.578Z,102215.69
2023-04-08T22:39:21.563Z,102209.13
2023-04-08T22:42:25.942Z,102205.81
2023-04-08T22:45:29.086Z,102205.09
2023-04-08T22:48:32.142Z,102210.38
2023-04-08T22:51:35.056Z,102205.22
2023-04-08T22:54:38.353Z,102200.50
2023-04-08T22:57:42.810Z,102201.59
2023-04-08T23:00:46.102Z,102199.22
2023-04-08T23:03:49.495Z,102198.59
2023-04-08T23:06:52.578Z,102203.81
2023-04-08T23:09:56.157Z,102205.72
2023-04-08T23:13:00.488Z,102202.59
2023-04-08T23:16:03.734Z,102204.69
2023-04-08T23:19:06.923Z,102212.53
2023-04-08T23:22:10.036Z,102204.84
2023-04-08T23:25:13.462Z,102211.78
2023-04-08T23:28:17.858Z,102202.34
2023-04-08T23:31:21.303Z,102208.47
2023-04-08T23:34:24.401Z,102194.88
2023-04-08T23:37:27.856Z,102196.72
2023-04-08T23:40:30.855Z,102195.09
2023-04-08T23:43:35.897Z,102192.59
2023-04-08T23:46:39.175Z,102197.00
2023-04-08T23:49:42.188Z,102202.31
2023-04-08T23:52:48.309Z,102197.28
2023-04-08T23:55:51.376Z,102194.06
2023-04-08T23:58:55.756Z,102195.88
